PWSweather.com
Personal Weather Stations
Station Observations
WATERF01
WaterfordIE

WaterfordIE

Lat: 52.2412507, Lon: -7.1414691

Elevation: 65

Station Type: Davis Vantage Vue

www.waterfordweather.com

High Low Average
Temperature 42.2°F5.7°C 35.1°F1.7°C 38.8°F3.8°C
Dew Point 37.8°F3.2°C 32.5°F0.3°C 35.5°F1.9°C
Winds 10.4 mph 16.7 kmh Calm Calm 4.0 mph W6.4 kmh W
Wind Gusts 16.1 mph25.9 kmh -- 7.0 mph11.3 kmh
Humidity 98% 79% 88%
Pressure 29.84 in1010.5 mb 29.67 in1004.7 mb -
Precipitation 0.02 in0.5 mm - -
Hour Temp Dew Point Humidity Winds Wind Gusts Pressure Precip Precip Rate Daily Precip Total
12:00 AM 36.8°F2.7°C 34.2°F1.2°C 90% 2.3 mph W3.7 kmh W 5.8 mph9.3 kmh 29.78 in1008.5 mb - 0.00 in0.0 mm 0.00 in0.0 mm
12:10 AM 37.0°F2.8°C 34.0°F1.1°C 89% 4.6 mph WNW7.4 kmh WNW 9.2 mph14.8 kmh 29.78 in1008.5 mb - 0.00 in0.0 mm 0.00 in0.0 mm
12:20 AM 37.5°F3.1°C 34.3°F1.3°C 88% 3.5 mph WNW5.6 kmh WNW 6.9 mph11.1 kmh 29.79 in1008.8 mb - 0.00 in0.0 mm 0.00 in0.0 mm
12:30 AM 37.5°F3.1°C 34.0°F1.1°C 87% 1.2 mph W1.9 kmh W 4.6 mph7.4 kmh 29.79 in1008.8 mb - 0.00 in0.0 mm 0.00 in0.0 mm
12:40 AM 36.6°F2.6°C 33.4°F0.8°C 88% Calm Calm -- 29.79 in1008.8 mb - 0.00 in0.0 mm 0.00 in0.0 mm
12:50 AM 36.5°F2.5°C 33.6°F0.9°C 89% 1.2 mph W1.9 kmh W 2.3 mph3.7 kmh 29.79 in1008.8 mb - 0.00 in0.0 mm 0.00 in0.0 mm
01:00 AM 36.7°F2.6°C 33.8°F1.0°C 89% 1.2 mph W1.9 kmh W 2.3 mph3.7 kmh 29.79 in1008.8 mb - 0.00 in0.0 mm 0.00 in0.0 mm
01:10 AM 36.2°F2.3°C 33.3°F0.7°C 89% 3.5 mph W5.6 kmh W 5.8 mph9.3 kmh 29.79 in1008.8 mb - 0.00 in0.0 mm 0.00 in0.0 mm
01:20 AM 36.6°F2.6°C 33.7°F0.9°C 89% 2.3 mph WSW3.7 kmh WSW 2.3 mph3.7 kmh 29.79 in1008.8 mb - 0.00 in0.0 mm 0.00 in0.0 mm
01:30 AM 36.3°F2.4°C 33.4°F0.8°C 89% 2.3 mph W3.7 kmh W 2.3 mph3.7 kmh 29.79 in1008.8 mb - 0.00 in0.0 mm 0.00 in0.0 mm
01:40 AM 36.3°F2.4°C 33.4°F0.8°C 89% Calm Calm -- 29.79 in1008.8 mb - 0.00 in0.0 mm 0.00 in0.0 mm
01:50 AM 36.5°F2.5°C 33.6°F0.9°C 89% Calm Calm -- 29.80 in1009.1 mb - 0.00 in0.0 mm 0.00 in0.0 mm
02:00 AM 36.1°F2.3°C 33.2°F0.7°C 89% 1.2 mph N1.9 kmh N 5.8 mph9.3 kmh 29.79 in1008.8 mb - 0.00 in0.0 mm 0.00 in0.0 mm
02:10 AM 35.6°F2.0°C 32.6°F0.3°C 89% 2.3 mph SSE3.7 kmh SSE 5.8 mph9.3 kmh 29.80 in1009.1 mb - 0.00 in0.0 mm 0.00 in0.0 mm
02:20 AM 35.2°F1.8°C 32.6°F0.3°C 90% 2.3 mph NW3.7 kmh NW 5.8 mph9.3 kmh 29.80 in1009.1 mb - 0.00 in0.0 mm 0.00 in0.0 mm
02:30 AM 35.4°F1.9°C 32.8°F0.4°C 90% 3.5 mph WSW5.6 kmh WSW 8.1 mph13.0 kmh 29.80 in1009.1 mb - 0.00 in0.0 mm 0.00 in0.0 mm
02:40 AM 35.6°F2.0°C 33.2°F0.7°C 91% 3.5 mph WNW5.6 kmh WNW 6.9 mph11.1 kmh 29.80 in1009.1 mb - 0.00 in0.0 mm 0.00 in0.0 mm
02:50 AM 35.6°F2.0°C 33.3°F0.7°C 91% 2.3 mph WSW3.7 kmh WSW 5.8 mph9.3 kmh 29.80 in1009.1 mb - 0.00 in0.0 mm 0.00 in0.0 mm
03:00 AM 35.4°F1.9°C 33.3°F0.7°C 92% Calm Calm -- 29.80 in1009.1 mb - 0.00 in0.0 mm 0.00 in0.0 mm
03:10 AM 36.3°F2.4°C 33.3°F0.7°C 89% 1.2 mph WNW1.9 kmh WNW 5.8 mph9.3 kmh 29.80 in1009.1 mb - 0.00 in0.0 mm 0.00 in0.0 mm
03:20 AM 37.6°F3.1°C 33.2°F0.7°C 84% 3.5 mph WNW5.6 kmh WNW 5.8 mph9.3 kmh 29.80 in1009.1 mb - 0.00 in0.0 mm 0.00 in0.0 mm
03:30 AM 38.1°F3.4°C 33.1°F0.6°C 82% 4.6 mph W7.4 kmh W 9.2 mph14.8 kmh 29.80 in1009.1 mb - 0.00 in0.0 mm 0.00 in0.0 mm
03:40 AM 37.9°F3.3°C 33.2°F0.7°C 83% 3.5 mph W5.6 kmh W 8.1 mph13.0 kmh 29.80 in1009.1 mb - 0.00 in0.0 mm 0.00 in0.0 mm
03:50 AM 37.1°F2.8°C 33.0°F0.6°C 85% 2.3 mph WSW3.7 kmh WSW 2.3 mph3.7 kmh 29.80 in1009.1 mb - 0.00 in0.0 mm 0.00 in0.0 mm
04:00 AM 36.1°F2.3°C 32.6°F0.3°C 87% 1.2 mph E1.9 kmh E 2.3 mph3.7 kmh 29.80 in1009.1 mb - 0.00 in0.0 mm 0.00 in0.0 mm
04:10 AM 35.6°F2.0°C 32.9°F0.5°C 90% Calm Calm -- 29.81 in1009.5 mb - 0.00 in0.0 mm 0.00 in0.0 mm
04:20 AM 36.3°F2.4°C 33.4°F0.8°C 89% 3.5 mph W5.6 kmh W 5.8 mph9.3 kmh 29.81 in1009.5 mb - 0.00 in0.0 mm 0.00 in0.0 mm
04:30 AM 36.9°F2.7°C 34.0°F1.1°C 89% 3.5 mph W5.6 kmh W 5.8 mph9.3 kmh 29.81 in1009.5 mb - 0.00 in0.0 mm 0.00 in0.0 mm
04:40 AM 37.1°F2.8°C 34.2°F1.2°C 89% 2.3 mph WNW3.7 kmh WNW 8.1 mph13.0 kmh 29.81 in1009.5 mb - 0.00 in0.0 mm 0.00 in0.0 mm
04:50 AM 37.0°F2.8°C 34.1°F1.2°C 89% 4.6 mph WNW7.4 kmh WNW 8.1 mph13.0 kmh 29.81 in1009.5 mb - 0.00 in0.0 mm 0.00 in0.0 mm
05:00 AM 36.8°F2.7°C 33.9°F1.1°C 89% 5.8 mph W9.3 kmh W 9.2 mph14.8 kmh 29.81 in1009.5 mb - 0.00 in0.0 mm 0.00 in0.0 mm
05:10 AM 37.4°F3.0°C 33.9°F1.1°C 87% 5.8 mph W9.3 kmh W 8.1 mph13.0 kmh 29.81 in1009.5 mb - 0.00 in0.0 mm 0.00 in0.0 mm
05:20 AM 37.3°F2.9°C 33.7°F0.9°C 87% 4.6 mph WNW7.4 kmh WNW 8.1 mph13.0 kmh 29.81 in1009.5 mb - 0.00 in0.0 mm 0.00 in0.0 mm
05:30 AM 37.1°F2.8°C 33.6°F0.9°C 87% 4.6 mph WNW7.4 kmh WNW 9.2 mph14.8 kmh 29.81 in1009.5 mb - 0.00 in0.0 mm 0.00 in0.0 mm
05:40 AM 36.8°F2.7°C 33.3°F0.7°C 87% 1.2 mph NW1.9 kmh NW 2.3 mph3.7 kmh 29.81 in1009.5 mb - 0.00 in0.0 mm 0.00 in0.0 mm
05:50 AM 35.9°F2.2°C 32.7°F0.4°C 88% Calm Calm -- 29.82 in1009.8 mb - 0.00 in0.0 mm 0.00 in0.0 mm
06:00 AM 35.1°F1.7°C 32.5°F0.3°C 90% Calm Calm -- 29.82 in1009.8 mb - 0.00 in0.0 mm 0.00 in0.0 mm
06:10 AM 35.5°F1.9°C 32.9°F0.5°C 90% Calm Calm -- 29.82 in1009.8 mb - 0.00 in0.0 mm 0.00 in0.0 mm
06:20 AM 35.5°F1.9°C 33.1°F0.6°C 91% Calm Calm -- 29.82 in1009.8 mb - 0.00 in0.0 mm 0.00 in0.0 mm
06:30 AM 36.4°F2.4°C 33.7°F0.9°C 90% 2.3 mph WNW3.7 kmh WNW 8.1 mph13.0 kmh 29.82 in1009.8 mb - 0.00 in0.0 mm 0.00 in0.0 mm
06:40 AM 37.0°F2.8°C 34.0°F1.1°C 89% 5.8 mph WNW9.3 kmh WNW 11.5 mph18.5 kmh 29.82 in1009.8 mb - 0.00 in0.0 mm 0.00 in0.0 mm
06:50 AM 37.6°F3.1°C 34.9°F1.6°C 90% 5.8 mph W9.3 kmh W 11.5 mph18.5 kmh 29.81 in1009.5 mb - 0.00 in0.0 mm 0.00 in0.0 mm
07:00 AM 37.3°F2.9°C 34.9°F1.6°C 91% 3.5 mph NW5.6 kmh NW 8.1 mph13.0 kmh 29.81 in1009.5 mb - 0.00 in0.0 mm 0.00 in0.0 mm
07:10 AM 37.1°F2.8°C 34.7°F1.5°C 91% 2.3 mph SW3.7 kmh SW 4.6 mph7.4 kmh 29.82 in1009.8 mb - 0.00 in0.0 mm 0.00 in0.0 mm
07:20 AM 36.4°F2.4°C 34.6°F1.4°C 93% 2.3 mph WSW3.7 kmh WSW 4.6 mph7.4 kmh 29.81 in1009.5 mb - 0.00 in0.0 mm 0.00 in0.0 mm
07:30 AM 36.0°F2.2°C 34.4°F1.3°C 94% 3.5 mph W5.6 kmh W 5.8 mph9.3 kmh 29.82 in1009.8 mb - 0.00 in0.0 mm 0.00 in0.0 mm
07:40 AM 35.9°F2.2°C 34.6°F1.4°C 95% 3.5 mph WNW5.6 kmh WNW 4.6 mph7.4 kmh 29.82 in1009.8 mb - 0.00 in0.0 mm 0.00 in0.0 mm
07:50 AM 35.6°F2.0°C 34.3°F1.3°C 95% 4.6 mph W7.4 kmh W 6.9 mph11.1 kmh 29.82 in1009.8 mb - 0.00 in0.0 mm 0.00 in0.0 mm
08:00 AM 35.7°F2.1°C 34.7°F1.5°C 96% 3.5 mph WSW5.6 kmh WSW 9.2 mph14.8 kmh 29.82 in1009.8 mb - 0.00 in0.0 mm 0.00 in0.0 mm
08:10 AM 36.1°F2.3°C 35.3°F1.8°C 97% 2.3 mph WNW3.7 kmh WNW 4.6 mph7.4 kmh 29.82 in1009.8 mb - 0.01 in0.3 mm 0.01 in0.3 mm
08:20 AM 36.2°F2.3°C 35.7°F2.1°C 98% 2.3 mph W3.7 kmh W 4.6 mph7.4 kmh 29.82 in1009.8 mb - 0.00 in0.0 mm 0.01 in0.3 mm
08:30 AM 36.0°F2.2°C 35.5°F1.9°C 98% 1.2 mph WNW1.9 kmh WNW 4.6 mph7.4 kmh 29.82 in1009.8 mb - 0.00 in0.0 mm 0.01 in0.3 mm
08:40 AM 35.7°F2.1°C 35.2°F1.8°C 98% 1.2 mph SW1.9 kmh SW 4.6 mph7.4 kmh 29.82 in1009.8 mb - 0.00 in0.0 mm 0.01 in0.3 mm
08:50 AM 35.6°F2.0°C 35.1°F1.7°C 98% 1.2 mph W1.9 kmh W 5.8 mph9.3 kmh 29.82 in1009.8 mb - 0.00 in0.0 mm 0.01 in0.3 mm
09:00 AM 35.5°F1.9°C 35.0°F1.7°C 98% 2.3 mph W3.7 kmh W 4.6 mph7.4 kmh 29.82 in1009.8 mb - 0.00 in0.0 mm 0.01 in0.3 mm
09:10 AM 35.9°F2.2°C 35.2°F1.8°C 97% 3.5 mph WNW5.6 kmh WNW 5.8 mph9.3 kmh 29.82 in1009.8 mb - 0.01 in0.3 mm 0.02 in0.5 mm
09:20 AM 36.3°F2.4°C 35.0°F1.7°C 95% 2.3 mph WNW3.7 kmh WNW 5.8 mph9.3 kmh 29.83 in1010.2 mb - 0.01 in0.3 mm 0.02 in0.5 mm
09:30 AM 37.0°F2.8°C 35.2°F1.8°C 93% 5.8 mph W9.3 kmh W 9.2 mph14.8 kmh 29.83 in1010.2 mb - 0.00 in0.0 mm 0.02 in0.5 mm
09:40 AM 37.7°F3.2°C 35.3°F1.8°C 91% 6.9 mph W11.1 kmh W 13.8 mph22.2 kmh 29.83 in1010.2 mb - 0.00 in0.0 mm 0.02 in0.5 mm
09:50 AM 38.0°F3.3°C 35.6°F2.0°C 91% 5.8 mph W9.3 kmh W 9.2 mph14.8 kmh 29.83 in1010.2 mb - 0.00 in0.0 mm 0.02 in0.5 mm
10:00 AM 37.9°F3.3°C 35.5°F1.9°C 91% 4.6 mph WNW7.4 kmh WNW 8.1 mph13.0 kmh 29.83 in1010.2 mb - 0.00 in0.0 mm 0.02 in0.5 mm
10:10 AM 38.1°F3.4°C 36.0°F2.2°C 92% 4.6 mph WNW7.4 kmh WNW 6.9 mph11.1 kmh 29.84 in1010.5 mb - 0.00 in0.0 mm 0.02 in0.5 mm
10:20 AM 38.6°F3.7°C 36.2°F2.3°C 91% 4.6 mph W7.4 kmh W 8.1 mph13.0 kmh 29.84 in1010.5 mb - 0.00 in0.0 mm 0.02 in0.5 mm
10:30 AM 39.1°F3.9°C 36.1°F2.3°C 89% 8.1 mph WNW13.0 kmh WNW 13.8 mph22.2 kmh 29.84 in1010.5 mb - 0.00 in0.0 mm 0.02 in0.5 mm
10:40 AM 39.7°F4.3°C 36.5°F2.5°C 88% 9.2 mph WNW14.8 kmh WNW 13.8 mph22.2 kmh 29.84 in1010.5 mb - 0.00 in0.0 mm 0.02 in0.5 mm
10:50 AM 40.1°F4.5°C 36.5°F2.5°C 87% 6.9 mph W11.1 kmh W 13.8 mph22.2 kmh 29.84 in1010.5 mb - 0.00 in0.0 mm 0.02 in0.5 mm
11:00 AM 40.4°F4.7°C 36.5°F2.5°C 86% 3.5 mph W5.6 kmh W 10.4 mph16.7 kmh 29.84 in1010.5 mb - 0.00 in0.0 mm 0.02 in0.5 mm
11:10 AM 40.6°F4.8°C 36.4°F2.4°C 85% 5.8 mph W9.3 kmh W 9.2 mph14.8 kmh 29.83 in1010.2 mb - 0.00 in0.0 mm 0.02 in0.5 mm
11:20 AM 41.0°F5.0°C 36.9°F2.7°C 85% 5.8 mph W9.3 kmh W 9.2 mph14.8 kmh 29.84 in1010.5 mb - 0.00 in0.0 mm 0.02 in0.5 mm
11:30 AM 41.3°F5.2°C 37.1°F2.8°C 85% 6.9 mph W11.1 kmh W 11.5 mph18.5 kmh 29.84 in1010.5 mb - 0.00 in0.0 mm 0.02 in0.5 mm
11:40 AM 41.5°F5.3°C 37.0°F2.8°C 84% 5.8 mph W9.3 kmh W 11.5 mph18.5 kmh 29.84 in1010.5 mb - 0.00 in0.0 mm 0.02 in0.5 mm
11:50 AM 41.8°F5.4°C 37.3°F2.9°C 84% 5.8 mph W9.3 kmh W 9.2 mph14.8 kmh 29.83 in1010.2 mb - 0.00 in0.0 mm 0.02 in0.5 mm
12:00 PM 41.6°F5.3°C 36.5°F2.5°C 82% 10.4 mph WNW16.7 kmh WNW 13.8 mph22.2 kmh 29.83 in1010.2 mb - 0.00 in0.0 mm 0.02 in0.5 mm
12:10 PM 41.0°F5.0°C 35.9°F2.2°C 82% 6.9 mph W11.1 kmh W 11.5 mph18.5 kmh 29.83 in1010.2 mb - 0.00 in0.0 mm 0.02 in0.5 mm
12:20 PM 41.5°F5.3°C 36.1°F2.3°C 81% 5.8 mph WNW9.3 kmh WNW 16.1 mph25.9 kmh 29.84 in1010.5 mb - 0.00 in0.0 mm 0.02 in0.5 mm
12:30 PM 41.6°F5.3°C 35.6°F2.0°C 79% 4.6 mph WNW7.4 kmh WNW 8.1 mph13.0 kmh 29.84 in1010.5 mb - 0.00 in0.0 mm 0.02 in0.5 mm
12:40 PM 41.5°F5.3°C 35.8°F2.1°C 80% 4.6 mph W7.4 kmh W 13.8 mph22.2 kmh 29.84 in1010.5 mb - 0.00 in0.0 mm 0.02 in0.5 mm
12:50 PM 41.2°F5.1°C 36.1°F2.3°C 82% 8.1 mph W13.0 kmh W 13.8 mph22.2 kmh 29.84 in1010.5 mb - 0.00 in0.0 mm 0.02 in0.5 mm
01:00 PM 41.0°F5.0°C 35.6°F2.0°C 81% 6.9 mph W11.1 kmh W 13.8 mph22.2 kmh 29.84 in1010.5 mb - 0.00 in0.0 mm 0.02 in0.5 mm
01:10 PM 41.0°F5.0°C 35.9°F2.2°C 82% 5.8 mph WNW9.3 kmh WNW 8.1 mph13.0 kmh 29.84 in1010.5 mb - 0.00 in0.0 mm 0.02 in0.5 mm
01:20 PM 41.4°F5.2°C 36.3°F2.4°C 82% 2.3 mph WNW3.7 kmh WNW 4.6 mph7.4 kmh 29.84 in1010.5 mb - 0.00 in0.0 mm 0.02 in0.5 mm
01:30 PM 41.6°F5.3°C 36.2°F2.3°C 81% 6.9 mph W11.1 kmh W 9.2 mph14.8 kmh 29.84 in1010.5 mb - 0.00 in0.0 mm 0.02 in0.5 mm
01:40 PM 41.6°F5.3°C 36.2°F2.3°C 81% 6.9 mph WNW11.1 kmh WNW 13.8 mph22.2 kmh 29.83 in1010.2 mb - 0.00 in0.0 mm 0.02 in0.5 mm
01:50 PM 41.3°F5.2°C 36.2°F2.3°C 82% 4.6 mph W7.4 kmh W 8.1 mph13.0 kmh 29.84 in1010.5 mb - 0.00 in0.0 mm 0.02 in0.5 mm
02:00 PM 41.4°F5.2°C 37.2°F2.9°C 85% 4.6 mph WNW7.4 kmh WNW 8.1 mph13.0 kmh 29.83 in1010.2 mb - 0.00 in0.0 mm 0.02 in0.5 mm
02:10 PM 41.1°F5.1°C 36.3°F2.4°C 83% 6.9 mph NW11.1 kmh NW 13.8 mph22.2 kmh 29.83 in1010.2 mb - 0.00 in0.0 mm 0.02 in0.5 mm
02:20 PM 40.8°F4.9°C 36.6°F2.6°C 85% 5.8 mph W9.3 kmh W 8.1 mph13.0 kmh 29.82 in1009.8 mb - 0.00 in0.0 mm 0.02 in0.5 mm
02:30 PM 40.8°F4.9°C 36.9°F2.7°C 86% 2.3 mph W3.7 kmh W 4.6 mph7.4 kmh 29.82 in1009.8 mb - 0.00 in0.0 mm 0.02 in0.5 mm
02:40 PM 41.4°F5.2°C 37.0°F2.8°C 84% 3.5 mph W5.6 kmh W 6.9 mph11.1 kmh 29.82 in1009.8 mb - 0.00 in0.0 mm 0.02 in0.5 mm
02:50 PM 42.0°F5.6°C 36.3°F2.4°C 80% 6.9 mph W11.1 kmh W 9.2 mph14.8 kmh 29.82 in1009.8 mb - 0.00 in0.0 mm 0.02 in0.5 mm
03:00 PM 42.2°F5.7°C 36.8°F2.7°C 81% 3.5 mph WNW5.6 kmh WNW 6.9 mph11.1 kmh 29.82 in1009.8 mb - 0.00 in0.0 mm 0.02 in0.5 mm
03:10 PM 42.2°F5.7°C 36.5°F2.5°C 80% 5.8 mph W9.3 kmh W 9.2 mph14.8 kmh 29.82 in1009.8 mb - 0.00 in0.0 mm 0.02 in0.5 mm
03:20 PM 42.2°F5.7°C 36.5°F2.5°C 80% 6.9 mph WNW11.1 kmh WNW 11.5 mph18.5 kmh 29.82 in1009.8 mb - 0.00 in0.0 mm 0.02 in0.5 mm
03:30 PM 42.1°F5.6°C 36.4°F2.4°C 80% 6.9 mph W11.1 kmh W 11.5 mph18.5 kmh 29.82 in1009.8 mb - 0.00 in0.0 mm 0.02 in0.5 mm
03:40 PM 42.0°F5.6°C 36.2°F2.3°C 80% 3.5 mph W5.6 kmh W 8.1 mph13.0 kmh 29.82 in1009.8 mb - 0.00 in0.0 mm 0.02 in0.5 mm
03:50 PM 41.8°F5.4°C 36.4°F2.4°C 81% 3.5 mph W5.6 kmh W 5.8 mph9.3 kmh 29.82 in1009.8 mb - 0.00 in0.0 mm 0.02 in0.5 mm
04:00 PM 41.5°F5.3°C 36.4°F2.4°C 82% 3.5 mph W5.6 kmh W 6.9 mph11.1 kmh 29.82 in1009.8 mb - 0.00 in0.0 mm 0.02 in0.5 mm
04:10 PM 41.2°F5.1°C 36.1°F2.3°C 82% 5.8 mph W9.3 kmh W 8.1 mph13.0 kmh 29.83 in1010.2 mb - 0.00 in0.0 mm 0.02 in0.5 mm
04:20 PM 40.9°F4.9°C 36.7°F2.6°C 85% 2.3 mph SW3.7 kmh SW 5.8 mph9.3 kmh 29.82 in1009.8 mb - 0.00 in0.0 mm 0.02 in0.5 mm
04:30 PM 40.5°F4.7°C 36.9°F2.7°C 87% 2.3 mph WNW3.7 kmh WNW 4.6 mph7.4 kmh 29.83 in1010.2 mb - 0.00 in0.0 mm 0.02 in0.5 mm
04:40 PM 40.5°F4.7°C 37.5°F3.1°C 89% 3.5 mph W5.6 kmh W 9.2 mph14.8 kmh 29.82 in1009.8 mb - 0.00 in0.0 mm 0.02 in0.5 mm
04:50 PM 40.3°F4.6°C 37.0°F2.8°C 88% 1.2 mph WSW1.9 kmh WSW 2.3 mph3.7 kmh 29.82 in1009.8 mb - 0.00 in0.0 mm 0.02 in0.5 mm
05:00 PM 39.8°F4.3°C 36.9°F2.7°C 89% 2.3 mph W3.7 kmh W 5.8 mph9.3 kmh 29.81 in1009.5 mb - 0.00 in0.0 mm 0.02 in0.5 mm
05:10 PM 39.5°F4.2°C 36.5°F2.5°C 89% 3.5 mph WSW5.6 kmh WSW 5.8 mph9.3 kmh 29.81 in1009.5 mb - 0.00 in0.0 mm 0.02 in0.5 mm
05:20 PM 39.3°F4.1°C 36.6°F2.6°C 90% 1.2 mph SW1.9 kmh SW 2.3 mph3.7 kmh 29.81 in1009.5 mb - 0.00 in0.0 mm 0.02 in0.5 mm
05:30 PM 39.5°F4.2°C 36.3°F2.4°C 88% 3.5 mph WNW5.6 kmh WNW 5.8 mph9.3 kmh 29.80 in1009.1 mb - 0.00 in0.0 mm 0.02 in0.5 mm
05:40 PM 40.3°F4.6°C 36.4°F2.4°C 86% 4.6 mph WNW7.4 kmh WNW 8.1 mph13.0 kmh 29.80 in1009.1 mb - 0.00 in0.0 mm 0.02 in0.5 mm
05:50 PM 40.7°F4.8°C 36.2°F2.3°C 84% 5.8 mph W9.3 kmh W 8.1 mph13.0 kmh 29.81 in1009.5 mb - 0.00 in0.0 mm 0.02 in0.5 mm
06:00 PM 41.0°F5.0°C 35.3°F1.8°C 80% 5.8 mph WNW9.3 kmh WNW 8.1 mph13.0 kmh 29.81 in1009.5 mb - 0.00 in0.0 mm 0.02 in0.5 mm
06:10 PM 41.1°F5.1°C 35.4°F1.9°C 80% 4.6 mph W7.4 kmh W 6.9 mph11.1 kmh 29.81 in1009.5 mb - 0.00 in0.0 mm 0.02 in0.5 mm
06:20 PM 41.0°F5.0°C 36.2°F2.3°C 83% 2.3 mph W3.7 kmh W 4.6 mph7.4 kmh 29.81 in1009.5 mb - 0.00 in0.0 mm 0.02 in0.5 mm
06:30 PM 39.7°F4.3°C 36.4°F2.4°C 88% 2.3 mph WSW3.7 kmh WSW 4.6 mph7.4 kmh 29.81 in1009.5 mb - 0.00 in0.0 mm 0.02 in0.5 mm
06:40 PM 39.1°F3.9°C 36.4°F2.4°C 90% 2.3 mph WNW3.7 kmh WNW 5.8 mph9.3 kmh 29.81 in1009.5 mb - 0.00 in0.0 mm 0.02 in0.5 mm
06:50 PM 39.2°F4.0°C 36.5°F2.5°C 90% 2.3 mph WNW3.7 kmh WNW 5.8 mph9.3 kmh 29.81 in1009.5 mb - 0.00 in0.0 mm 0.02 in0.5 mm
07:00 PM 38.9°F3.8°C 36.2°F2.3°C 90% 2.3 mph WNW3.7 kmh WNW 5.8 mph9.3 kmh 29.81 in1009.5 mb - 0.00 in0.0 mm 0.02 in0.5 mm
07:10 PM 38.8°F3.8°C 36.4°F2.4°C 91% 2.3 mph SW3.7 kmh SW 5.8 mph9.3 kmh 29.81 in1009.5 mb - 0.00 in0.0 mm 0.02 in0.5 mm
07:20 PM 38.8°F3.8°C 36.4°F2.4°C 91% 4.6 mph W7.4 kmh W 8.1 mph13.0 kmh 29.81 in1009.5 mb - 0.00 in0.0 mm 0.02 in0.5 mm
07:30 PM 39.2°F4.0°C 36.5°F2.5°C 90% 5.8 mph WSW9.3 kmh WSW 11.5 mph18.5 kmh 29.80 in1009.1 mb - 0.00 in0.0 mm 0.02 in0.5 mm
07:40 PM 39.5°F4.2°C 36.5°F2.5°C 89% 4.6 mph W7.4 kmh W 8.1 mph13.0 kmh 29.80 in1009.1 mb - 0.00 in0.0 mm 0.02 in0.5 mm
07:50 PM 39.8°F4.3°C 36.8°F2.7°C 89% 4.6 mph W7.4 kmh W 8.1 mph13.0 kmh 29.80 in1009.1 mb - 0.00 in0.0 mm 0.02 in0.5 mm
08:00 PM 40.1°F4.5°C 36.8°F2.7°C 88% 5.8 mph WSW9.3 kmh WSW 8.1 mph13.0 kmh 29.79 in1008.8 mb - 0.00 in0.0 mm 0.02 in0.5 mm
08:10 PM 40.1°F4.5°C 36.8°F2.7°C 88% 5.8 mph W9.3 kmh W 9.2 mph14.8 kmh 29.79 in1008.8 mb - 0.00 in0.0 mm 0.02 in0.5 mm
08:20 PM 40.1°F4.5°C 36.8°F2.7°C 88% 4.6 mph W7.4 kmh W 8.1 mph13.0 kmh 29.79 in1008.8 mb - 0.00 in0.0 mm 0.02 in0.5 mm
08:30 PM 40.2°F4.6°C 36.9°F2.7°C 88% 6.9 mph W11.1 kmh W 11.5 mph18.5 kmh 29.78 in1008.5 mb - 0.00 in0.0 mm 0.02 in0.5 mm
08:40 PM 40.2°F4.6°C 36.9°F2.7°C 88% 5.8 mph W9.3 kmh W 8.1 mph13.0 kmh 29.78 in1008.5 mb - 0.00 in0.0 mm 0.02 in0.5 mm
08:50 PM 40.2°F4.6°C 36.9°F2.7°C 88% 5.8 mph W9.3 kmh W 9.2 mph14.8 kmh 29.78 in1008.5 mb - 0.00 in0.0 mm 0.02 in0.5 mm
09:00 PM 40.3°F4.6°C 37.0°F2.8°C 88% 3.5 mph W5.6 kmh W 11.5 mph18.5 kmh 29.77 in1008.1 mb - 0.00 in0.0 mm 0.02 in0.5 mm
09:10 PM 40.3°F4.6°C 37.0°F2.8°C 88% 4.6 mph WNW7.4 kmh WNW 9.2 mph14.8 kmh 29.77 in1008.1 mb - 0.00 in0.0 mm 0.02 in0.5 mm
09:20 PM 40.3°F4.6°C 36.7°F2.6°C 87% 4.6 mph WSW7.4 kmh WSW 8.1 mph13.0 kmh 29.76 in1007.8 mb - 0.00 in0.0 mm 0.02 in0.5 mm
09:30 PM 40.3°F4.6°C 36.4°F2.4°C 86% 4.6 mph W7.4 kmh W 9.2 mph14.8 kmh 29.76 in1007.8 mb - 0.00 in0.0 mm 0.02 in0.5 mm
09:40 PM 40.3°F4.6°C 36.4°F2.4°C 86% 5.8 mph W9.3 kmh W 9.2 mph14.8 kmh 29.75 in1007.5 mb - 0.00 in0.0 mm 0.02 in0.5 mm
09:50 PM 40.4°F4.7°C 36.5°F2.5°C 86% 3.5 mph W5.6 kmh W 6.9 mph11.1 kmh 29.75 in1007.5 mb - 0.00 in0.0 mm 0.02 in0.5 mm
10:00 PM 40.3°F4.6°C 36.7°F2.6°C 87% 2.3 mph W3.7 kmh W 4.6 mph7.4 kmh 29.74 in1007.1 mb - 0.00 in0.0 mm 0.02 in0.5 mm
10:10 PM 40.2°F4.6°C 36.6°F2.6°C 87% 2.3 mph WSW3.7 kmh WSW 5.8 mph9.3 kmh 29.73 in1006.8 mb - 0.00 in0.0 mm 0.02 in0.5 mm
10:20 PM 40.2°F4.6°C 36.9°F2.7°C 88% 1.2 mph WNW1.9 kmh WNW 5.8 mph9.3 kmh 29.73 in1006.8 mb - 0.00 in0.0 mm 0.02 in0.5 mm
10:30 PM 40.2°F4.6°C 36.9°F2.7°C 88% 2.3 mph SW3.7 kmh SW 5.8 mph9.3 kmh 29.72 in1006.4 mb - 0.00 in0.0 mm 0.02 in0.5 mm
10:40 PM 40.3°F4.6°C 37.0°F2.8°C 88% 2.3 mph NW3.7 kmh NW 2.3 mph3.7 kmh 29.72 in1006.4 mb - 0.00 in0.0 mm 0.02 in0.5 mm
10:50 PM 40.4°F4.7°C 37.1°F2.8°C 88% 2.3 mph WSW3.7 kmh WSW 5.8 mph9.3 kmh 29.71 in1006.1 mb - 0.00 in0.0 mm 0.02 in0.5 mm
11:00 PM 40.5°F4.7°C 37.2°F2.9°C 88% 1.2 mph WSW1.9 kmh WSW 4.6 mph7.4 kmh 29.71 in1006.1 mb - 0.00 in0.0 mm 0.02 in0.5 mm
11:10 PM 40.6°F4.8°C 37.3°F2.9°C 88% 2.3 mph NNW3.7 kmh NNW 5.8 mph9.3 kmh 29.70 in1005.8 mb - 0.00 in0.0 mm 0.02 in0.5 mm
11:20 PM 40.5°F4.7°C 37.5°F3.1°C 89% Calm Calm -- 29.70 in1005.8 mb - 0.00 in0.0 mm 0.02 in0.5 mm
11:30 PM 40.3°F4.6°C 37.6°F3.1°C 90% Calm Calm -- 29.69 in1005.4 mb - 0.00 in0.0 mm 0.02 in0.5 mm
11:40 PM 40.1°F4.5°C 37.7°F3.2°C 91% Calm Calm -- 29.68 in1005.1 mb - 0.00 in0.0 mm 0.02 in0.5 mm
11:50 PM 39.9°F4.4°C 37.8°F3.2°C 92% Calm Calm -- 29.67 in1004.7 mb - 0.00 in0.0 mm 0.02 in0.5 mm